<?xml version="1.0" encoding="UTF-8" standalone="no" ?><gpx xmlns="http://www.topografix.com/GPX/1/1" xmlns:gpxx="http://www.garmin.com/xmlschemas/GpxExtensions/v3" xmlns:wptx1="http://www.garmin.com/xmlschemas/WaypointExtension/v1" xmlns:gpxtpx="http://www.garmin.com/xmlschemas/TrackPointExtension/v1" creator="GuideVTT.com" version="1.1" xmlns:xsi="http://www.w3.org/2001/XMLSchema-instance" xsi:schemaLocation="http://www.topografix.com/GPX/1/1 http://www.topografix.com/GPX/1/1/gpx.xsd http://www.garmin.com/xmlschemas/GpxExtensions/v3 http://www8.garmin.com/xmlschemas/GpxExtensionsv3.xsd http://www.garmin.com/xmlschemas/WaypointExtension/v1 http://www8.garmin.com/xmlschemas/WaypointExtensionv1.xsd http://www.garmin.com/xmlschemas/TrackPointExtension/v1 http://www.garmin.com/xmlschemas/TrackPointExtensionv1.xsd">
<metadata><link href="http://www.garmin.com"><text>Garmin International</text></link><time>2013-06-22T15:13:50Z</time></metadata>
<trk><name>parcours23.gpx</name><extensions><gpxx:TrackExtension><gpxx:DisplayColor>Cyan</gpxx:DisplayColor></gpxx:TrackExtension></extensions><trkseg>
<trkpt lat="46.50993330" lon="6.30751670"><ele>735</ele><time>2004-06-15T13:39:36Z</time></trkpt>
<trkpt lat="46.50996670" lon="6.30750000"><ele>735</ele><time>2004-06-15T13:39:52Z</time></trkpt>
<trkpt lat="46.51020000" lon="6.30766670"><ele>736</ele><time>2004-06-15T13:40:03Z</time></trkpt>
<trkpt lat="46.51035000" lon="6.30743330"><ele>737</ele><time>2004-06-15T13:40:11Z</time></trkpt>
<trkpt lat="46.51036670" lon="6.30735000"><ele>737</ele><time>2004-06-15T13:40:14Z</time></trkpt>
<trkpt lat="46.51051670" lon="6.30738330"><ele>737</ele><time>2004-06-15T13:40:20Z</time></trkpt>
<trkpt lat="46.51088330" lon="6.30793330"><ele>737</ele><time>2004-06-15T13:40:32Z</time></trkpt>
<trkpt lat="46.51273330" lon="6.31033330"><ele>737</ele><time>2004-06-15T13:41:20Z</time></trkpt>
<trkpt lat="46.51290000" lon="6.31051670"><ele>737</ele><time>2004-06-15T13:41:24Z</time></trkpt>
<trkpt lat="46.51356670" lon="6.31141670"><ele>736</ele><time>2004-06-15T13:41:39Z</time></trkpt>
<trkpt lat="46.51425000" lon="6.31230000"><ele>735</ele><time>2004-06-15T13:41:54Z</time></trkpt>
<trkpt lat="46.51463330" lon="6.31295000"><ele>734</ele><time>2004-06-15T13:42:04Z</time></trkpt>
<trkpt lat="46.51478330" lon="6.31286670"><ele>734</ele><time>2004-06-15T13:42:09Z</time></trkpt>
<trkpt lat="46.51488330" lon="6.31266670"><ele>734</ele><time>2004-06-15T13:42:13Z</time></trkpt>
<trkpt lat="46.51528330" lon="6.31206670"><ele>734</ele><time>2004-06-15T13:42:25Z</time></trkpt>
<trkpt lat="46.51568330" lon="6.31156670"><ele>736</ele><time>2004-06-15T13:42:38Z</time></trkpt>
<trkpt lat="46.51605000" lon="6.31100000"><ele>739</ele><time>2004-06-15T13:43:05Z</time></trkpt>
<trkpt lat="46.51626670" lon="6.31075000"><ele>743</ele><time>2004-06-15T13:43:18Z</time></trkpt>
<trkpt lat="46.51668330" lon="6.31050000"><ele>745</ele><time>2004-06-15T13:43:32Z</time></trkpt>
<trkpt lat="46.51746670" lon="6.30981670"><ele>750</ele><time>2004-06-15T13:44:01Z</time></trkpt>
<trkpt lat="46.51786670" lon="6.30965000"><ele>751</ele><time>2004-06-15T13:44:13Z</time></trkpt>
<trkpt lat="46.51880000" lon="6.30910000"><ele>755</ele><time>2004-06-15T13:44:42Z</time></trkpt>
<trkpt lat="46.51941670" lon="6.30855000"><ele>759</ele><time>2004-06-15T13:45:08Z</time></trkpt>
<trkpt lat="46.51980000" lon="6.30831670"><ele>760</ele><time>2004-06-15T13:45:21Z</time></trkpt>
<trkpt lat="46.52020000" lon="6.30801670"><ele>761</ele><time>2004-06-15T13:45:35Z</time></trkpt>
<trkpt lat="46.52050000" lon="6.30775000"><ele>762</ele><time>2004-06-15T13:45:46Z</time></trkpt>
<trkpt lat="46.52081670" lon="6.30741670"><ele>763</ele><time>2004-06-15T13:45:59Z</time></trkpt>
<trkpt lat="46.52138330" lon="6.30686670"><ele>766</ele><time>2004-06-15T13:46:18Z</time></trkpt>
<trkpt lat="46.52178330" lon="6.30651670"><ele>769</ele><time>2004-06-15T13:46:33Z</time></trkpt>
<trkpt lat="46.52215000" lon="6.30625000"><ele>771</ele><time>2004-06-15T13:46:47Z</time></trkpt>
<trkpt lat="46.52253330" lon="6.30611670"><ele>773</ele><time>2004-06-15T13:47:02Z</time></trkpt>
<trkpt lat="46.52328330" lon="6.30625000"><ele>780</ele><time>2004-06-15T13:47:36Z</time></trkpt>
<trkpt lat="46.52360000" lon="6.30616670"><ele>784</ele><time>2004-06-15T13:47:51Z</time></trkpt>
<trkpt lat="46.52386670" lon="6.30595000"><ele>787</ele><time>2004-06-15T13:48:05Z</time></trkpt>
<trkpt lat="46.52415000" lon="6.30540000"><ele>793</ele><time>2004-06-15T13:48:30Z</time></trkpt>
<trkpt lat="46.52433330" lon="6.30506670"><ele>796</ele><time>2004-06-15T13:48:45Z</time></trkpt>
<trkpt lat="46.52460000" lon="6.30480000"><ele>798</ele><time>2004-06-15T13:49:01Z</time></trkpt>
<trkpt lat="46.52478330" lon="6.30461670"><ele>800</ele><time>2004-06-15T13:49:12Z</time></trkpt>
<trkpt lat="46.52505000" lon="6.30445000"><ele>802</ele><time>2004-06-15T13:49:26Z</time></trkpt>
<trkpt lat="46.52556670" lon="6.30428330"><ele>806</ele><time>2004-06-15T13:49:54Z</time></trkpt>
<trkpt lat="46.52593330" lon="6.30415000"><ele>810</ele><time>2004-06-15T13:56:28Z</time></trkpt>
<trkpt lat="46.52463330" lon="6.30348330"><ele>810</ele><time>2004-06-15T13:57:54Z</time></trkpt>
<trkpt lat="46.52403330" lon="6.30301670"><ele>811</ele><time>2004-06-15T13:58:24Z</time></trkpt>
<trkpt lat="46.52373330" lon="6.30256670"><ele>814</ele><time>2004-06-15T13:58:37Z</time></trkpt>
<trkpt lat="46.52313330" lon="6.30148330"><ele>814</ele><time>2004-06-15T13:59:02Z</time></trkpt>
<trkpt lat="46.52281670" lon="6.30085000"><ele>815</ele><time>2004-06-15T13:59:18Z</time></trkpt>
<trkpt lat="46.52250000" lon="6.30061670"><ele>813</ele><time>2004-06-15T13:59:26Z</time></trkpt>
<trkpt lat="46.52240000" lon="6.30076670"><ele>812</ele><time>2004-06-15T13:59:28Z</time></trkpt>
<trkpt lat="46.52198330" lon="6.30093330"><ele>811</ele><time>2004-06-15T13:59:35Z</time></trkpt>
<trkpt lat="46.52176670" lon="6.30078330"><ele>811</ele><time>2004-06-15T13:59:39Z</time></trkpt>
<trkpt lat="46.52095000" lon="6.30046670"><ele>810</ele><time>2004-06-15T13:59:52Z</time></trkpt>
<trkpt lat="46.52016670" lon="6.29990000"><ele>810</ele><time>2004-06-15T14:00:05Z</time></trkpt>
<trkpt lat="46.51958330" lon="6.29921670"><ele>811</ele><time>2004-06-15T14:00:18Z</time></trkpt>
<trkpt lat="46.51946670" lon="6.29906670"><ele>811</ele><time>2004-06-15T14:00:21Z</time></trkpt>
<trkpt lat="46.51951670" lon="6.29883330"><ele>811</ele><time>2004-06-15T14:00:26Z</time></trkpt>
<trkpt lat="46.51958330" lon="6.29880000"><ele>812</ele><time>2004-06-15T14:00:28Z</time></trkpt>
<trkpt lat="46.51980000" lon="6.29856670"><ele>814</ele><time>2004-06-15T14:00:39Z</time></trkpt>
<trkpt lat="46.52015000" lon="6.29811670"><ele>816</ele><time>2004-06-15T14:00:52Z</time></trkpt>
<trkpt lat="46.52058330" lon="6.29745000"><ele>818</ele><time>2004-06-15T14:01:09Z</time></trkpt>
<trkpt lat="46.52103330" lon="6.29693330"><ele>821</ele><time>2004-06-15T14:01:25Z</time></trkpt>
<trkpt lat="46.52146670" lon="6.29651670"><ele>823</ele><time>2004-06-15T14:01:43Z</time></trkpt>
<trkpt lat="46.52168330" lon="6.29631670"><ele>826</ele><time>2004-06-15T14:01:55Z</time></trkpt>
<trkpt lat="46.52198330" lon="6.29616670"><ele>829</ele><time>2004-06-15T14:02:10Z</time></trkpt>
<trkpt lat="46.52228330" lon="6.29611670"><ele>832</ele><time>2004-06-15T14:02:25Z</time></trkpt>
<trkpt lat="46.52261670" lon="6.29618330"><ele>833</ele><time>2004-06-15T14:02:37Z</time></trkpt>
<trkpt lat="46.52301670" lon="6.29645000"><ele>835</ele><time>2004-06-15T14:02:53Z</time></trkpt>
<trkpt lat="46.52335000" lon="6.29675000"><ele>837</ele><time>2004-06-15T14:03:10Z</time></trkpt>
<trkpt lat="46.52365000" lon="6.29691670"><ele>839</ele><time>2004-06-15T14:03:25Z</time></trkpt>
<trkpt lat="46.52373330" lon="6.29705000"><ele>840</ele><time>2004-06-15T14:04:46Z</time></trkpt>
<trkpt lat="46.52438330" lon="6.29741670"><ele>845</ele><time>2004-06-15T14:05:14Z</time></trkpt>
<trkpt lat="46.52473330" lon="6.29753330"><ele>846</ele><time>2004-06-15T14:05:30Z</time></trkpt>
<trkpt lat="46.52530000" lon="6.29760000"><ele>847</ele><time>2004-06-15T14:06:00Z</time></trkpt>
<trkpt lat="46.52588330" lon="6.29780000"><ele>849</ele><time>2004-06-15T14:06:25Z</time></trkpt>
<trkpt lat="46.52613330" lon="6.29765000"><ele>849</ele><time>2004-06-15T14:06:37Z</time></trkpt>
<trkpt lat="46.52610000" lon="6.29728330"><ele>845</ele><time>2004-06-15T14:06:50Z</time></trkpt>
<trkpt lat="46.52530000" lon="6.29621670"><ele>849</ele><time>2004-06-15T14:07:29Z</time></trkpt>
<trkpt lat="46.52486670" lon="6.29573330"><ele>852</ele><time>2004-06-15T14:07:49Z</time></trkpt>
<trkpt lat="46.52455000" lon="6.29528330"><ele>856</ele><time>2004-06-15T14:08:05Z</time></trkpt>
<trkpt lat="46.52453330" lon="6.29501670"><ele>859</ele><time>2004-06-15T14:08:09Z</time></trkpt>
<trkpt lat="46.52426670" lon="6.29465000"><ele>862</ele><time>2004-06-15T14:08:23Z</time></trkpt>
<trkpt lat="46.52386670" lon="6.29415000"><ele>868</ele><time>2004-06-15T14:08:43Z</time></trkpt>
<trkpt lat="46.52326670" lon="6.29331670"><ele>872</ele><time>2004-06-15T14:09:11Z</time></trkpt>
<trkpt lat="46.52315000" lon="6.29325000"><ele>874</ele><time>2004-06-15T14:09:16Z</time></trkpt>
<trkpt lat="46.52216670" lon="6.29215000"><ele>888</ele><time>2004-06-15T14:10:10Z</time></trkpt>
<trkpt lat="46.52183330" lon="6.29168330"><ele>891</ele><time>2004-06-15T14:10:31Z</time></trkpt>
<trkpt lat="46.52111670" lon="6.29103330"><ele>902</ele><time>2004-06-15T14:11:04Z</time></trkpt>
<trkpt lat="46.52081670" lon="6.29065000"><ele>903</ele><time>2004-06-15T14:11:23Z</time></trkpt>
<trkpt lat="46.52035000" lon="6.28980000"><ele>913</ele><time>2004-06-15T14:11:59Z</time></trkpt>
<trkpt lat="46.52006670" lon="6.28938330"><ele>913</ele><time>2004-06-15T14:12:15Z</time></trkpt>
<trkpt lat="46.51980000" lon="6.28908330"><ele>919</ele><time>2004-06-15T14:12:28Z</time></trkpt>
<trkpt lat="46.51933330" lon="6.28870000"><ele>923</ele><time>2004-06-15T14:12:48Z</time></trkpt>
<trkpt lat="46.51900000" lon="6.28830000"><ele>923</ele><time>2004-06-15T14:13:06Z</time></trkpt>
<trkpt lat="46.51886670" lon="6.28780000"><ele>926</ele><time>2004-06-15T14:13:19Z</time></trkpt>
<trkpt lat="46.51885000" lon="6.28713330"><ele>930</ele><time>2004-06-15T14:13:40Z</time></trkpt>
<trkpt lat="46.51865000" lon="6.28693330"><ele>935</ele><time>2004-06-15T14:13:55Z</time></trkpt>
<trkpt lat="46.51848330" lon="6.28693330"><ele>936</ele><time>2004-06-15T14:14:03Z</time></trkpt>
<trkpt lat="46.51831670" lon="6.28666670"><ele>940</ele><time>2004-06-15T14:14:16Z</time></trkpt>
<trkpt lat="46.51843330" lon="6.28636670"><ele>941</ele><time>2004-06-15T14:14:29Z</time></trkpt>
<trkpt lat="46.51880000" lon="6.28658330"><ele>940</ele><time>2004-06-15T14:14:45Z</time></trkpt>
<trkpt lat="46.51910000" lon="6.28685000"><ele>942</ele><time>2004-06-15T14:15:03Z</time></trkpt>
<trkpt lat="46.51925000" lon="6.28730000"><ele>943</ele><time>2004-06-15T14:15:18Z</time></trkpt>
<trkpt lat="46.51955000" lon="6.28766670"><ele>944</ele><time>2004-06-15T14:15:35Z</time></trkpt>
<trkpt lat="46.52023330" lon="6.28808330"><ele>946</ele><time>2004-06-15T14:16:09Z</time></trkpt>
<trkpt lat="46.52060000" lon="6.28816670"><ele>947</ele><time>2004-06-15T14:16:24Z</time></trkpt>
<trkpt lat="46.52086670" lon="6.28853330"><ele>946</ele><time>2004-06-15T14:16:38Z</time></trkpt>
<trkpt lat="46.52113330" lon="6.28883330"><ele>946</ele><time>2004-06-15T14:16:53Z</time></trkpt>
<trkpt lat="46.52130000" lon="6.28905000"><ele>941</ele><time>2004-06-15T14:18:43Z</time></trkpt>
<trkpt lat="46.52138330" lon="6.28906670"><ele>941</ele><time>2004-06-15T14:18:46Z</time></trkpt>
<trkpt lat="46.52151670" lon="6.28921670"><ele>942</ele><time>2004-06-15T14:18:56Z</time></trkpt>
<trkpt lat="46.52203330" lon="6.28958330"><ele>944</ele><time>2004-06-15T14:19:16Z</time></trkpt>
<trkpt lat="46.52346670" lon="6.29006670"><ele>948</ele><time>2004-06-15T14:20:06Z</time></trkpt>
<trkpt lat="46.52400000" lon="6.29043330"><ele>948</ele><time>2004-06-15T14:20:26Z</time></trkpt>
<trkpt lat="46.52433330" lon="6.29086670"><ele>952</ele><time>2004-06-15T14:20:40Z</time></trkpt>
<trkpt lat="46.52506670" lon="6.29153330"><ele>958</ele><time>2004-06-15T14:21:06Z</time></trkpt>
<trkpt lat="46.52618330" lon="6.29281670"><ele>963</ele><time>2004-06-15T14:21:49Z</time></trkpt>
<trkpt lat="46.52683330" lon="6.29325000"><ele>966</ele><time>2004-06-15T14:22:11Z</time></trkpt>
<trkpt lat="46.52843330" lon="6.29391670"><ele>972</ele><time>2004-06-15T14:22:53Z</time></trkpt>
<trkpt lat="46.52866670" lon="6.29398330"><ele>972</ele><time>2004-06-15T14:22:58Z</time></trkpt>
<trkpt lat="46.52885000" lon="6.29398330"><ele>972</ele><time>2004-06-15T14:23:02Z</time></trkpt>
<trkpt lat="46.52906670" lon="6.29375000"><ele>973</ele><time>2004-06-15T14:23:07Z</time></trkpt>
<trkpt lat="46.52961670" lon="6.29243330"><ele>974</ele><time>2004-06-15T14:23:29Z</time></trkpt>
<trkpt lat="46.52951670" lon="6.29173330"><ele>974</ele><time>2004-06-15T14:23:40Z</time></trkpt>
<trkpt lat="46.52946670" lon="6.29010000"><ele>973</ele><time>2004-06-15T14:24:06Z</time></trkpt>
<trkpt lat="46.52993330" lon="6.28838330"><ele>975</ele><time>2004-06-15T14:24:27Z</time></trkpt>
<trkpt lat="46.53006670" lon="6.28778330"><ele>974</ele><time>2004-06-15T14:24:38Z</time></trkpt>
<trkpt lat="46.53033330" lon="6.28681670"><ele>975</ele><time>2004-06-15T14:24:51Z</time></trkpt>
<trkpt lat="46.53038330" lon="6.28528330"><ele>981</ele><time>2004-06-15T14:25:12Z</time></trkpt>
<trkpt lat="46.53023330" lon="6.28405000"><ele>985</ele><time>2004-06-15T14:25:29Z</time></trkpt>
<trkpt lat="46.53015000" lon="6.28296670"><ele>991</ele><time>2004-06-15T14:25:44Z</time></trkpt>
<trkpt lat="46.53016670" lon="6.28263330"><ele>993</ele><time>2004-06-15T14:25:49Z</time></trkpt>
<trkpt lat="46.53053330" lon="6.28181670"><ele>995</ele><time>2004-06-15T14:26:13Z</time></trkpt>
<trkpt lat="46.53050000" lon="6.28116670"><ele>997</ele><time>2004-06-15T14:26:31Z</time></trkpt>
<trkpt lat="46.53050000" lon="6.28121670"><ele>1006</ele><time>2004-06-15T14:26:53Z</time></trkpt>
<trkpt lat="46.53046670" lon="6.28115000"><ele>1022</ele><time>2004-06-15T14:27:32Z</time></trkpt>
<trkpt lat="46.53056670" lon="6.28085000"><ele>1017</ele><time>2004-06-15T14:27:49Z</time></trkpt>
<trkpt lat="46.53065000" lon="6.28020000"><ele>1018</ele><time>2004-06-15T14:28:13Z</time></trkpt>
<trkpt lat="46.53073330" lon="6.27916670"><ele>1021</ele><time>2004-06-15T14:28:37Z</time></trkpt>
<trkpt lat="46.53126670" lon="6.27835000"><ele>1043</ele><time>2004-06-15T14:32:06Z</time></trkpt>
<trkpt lat="46.53213330" lon="6.27748330"><ele>1036</ele><time>2004-06-15T14:32:36Z</time></trkpt>
<trkpt lat="46.53246670" lon="6.27685000"><ele>1036</ele><time>2004-06-15T14:32:48Z</time></trkpt>
<trkpt lat="46.53253330" lon="6.27668330"><ele>1036</ele><time>2004-06-15T14:32:51Z</time></trkpt>
<trkpt lat="46.53251670" lon="6.27630000"><ele>1036</ele><time>2004-06-15T14:32:57Z</time></trkpt>
<trkpt lat="46.53253330" lon="6.27608330"><ele>1036</ele><time>2004-06-15T14:33:00Z</time></trkpt>
<trkpt lat="46.53275000" lon="6.27586670"><ele>1036</ele><time>2004-06-15T14:33:06Z</time></trkpt>
<trkpt lat="46.53296670" lon="6.27561670"><ele>1033</ele><time>2004-06-15T14:33:14Z</time></trkpt>
<trkpt lat="46.53321670" lon="6.27541670"><ele>1032</ele><time>2004-06-15T14:33:28Z</time></trkpt>
<trkpt lat="46.53330000" lon="6.27541670"><ele>1028</ele><time>2004-06-15T14:33:41Z</time></trkpt>
<trkpt lat="46.53318330" lon="6.27558330"><ele>1036</ele><time>2004-06-15T14:34:27Z</time></trkpt>
<trkpt lat="46.53325000" lon="6.27601670"><ele>1038</ele><time>2004-06-15T14:34:46Z</time></trkpt>
<trkpt lat="46.53330000" lon="6.27616670"><ele>1038</ele><time>2004-06-15T14:34:54Z</time></trkpt>
<trkpt lat="46.53351670" lon="6.27775000"><ele>1043</ele><time>2004-06-15T14:35:32Z</time></trkpt>
<trkpt lat="46.53373330" lon="6.27815000"><ele>1046</ele><time>2004-06-15T14:36:03Z</time></trkpt>
<trkpt lat="46.53388330" lon="6.27850000"><ele>1048</ele><time>2004-06-15T14:36:23Z</time></trkpt>
<trkpt lat="46.53395000" lon="6.27891670"><ele>1053</ele><time>2004-06-15T14:36:41Z</time></trkpt>
<trkpt lat="46.53405000" lon="6.27921670"><ele>1055</ele><time>2004-06-15T14:36:58Z</time></trkpt>
<trkpt lat="46.53425000" lon="6.27958330"><ele>1061</ele><time>2004-06-15T14:37:19Z</time></trkpt>
<trkpt lat="46.53438330" lon="6.28003330"><ele>1064</ele><time>2004-06-15T14:37:39Z</time></trkpt>
<trkpt lat="46.53456670" lon="6.28031670"><ele>1066</ele><time>2004-06-15T14:37:55Z</time></trkpt>
<trkpt lat="46.53498330" lon="6.28066670"><ele>1067</ele><time>2004-06-15T14:38:17Z</time></trkpt>
<trkpt lat="46.53558330" lon="6.28056670"><ele>1066</ele><time>2004-06-15T14:38:36Z</time></trkpt>
<trkpt lat="46.53593330" lon="6.28056670"><ele>1067</ele><time>2004-06-15T14:38:50Z</time></trkpt>
<trkpt lat="46.53661670" lon="6.28063330"><ele>1067</ele><time>2004-06-15T14:39:20Z</time></trkpt>
<trkpt lat="46.53715000" lon="6.28086670"><ele>1067</ele><time>2004-06-15T14:39:51Z</time></trkpt>
<trkpt lat="46.53843330" lon="6.28170000"><ele>1072</ele><time>2004-06-15T14:40:43Z</time></trkpt>
<trkpt lat="46.53850000" lon="6.28181670"><ele>1114</ele><time>2004-06-15T14:42:40Z</time></trkpt>
<trkpt lat="46.53890000" lon="6.28198330"><ele>1115</ele><time>2004-06-15T14:43:04Z</time></trkpt>
<trkpt lat="46.53916670" lon="6.28226670"><ele>1110</ele><time>2004-06-15T14:43:21Z</time></trkpt>
<trkpt lat="46.53960000" lon="6.28260000"><ele>1111</ele><time>2004-06-15T14:43:53Z</time></trkpt>
<trkpt lat="46.53985000" lon="6.28293330"><ele>1109</ele><time>2004-06-15T14:44:09Z</time></trkpt>
<trkpt lat="46.53986670" lon="6.28308330"><ele>1109</ele><time>2004-06-15T14:44:14Z</time></trkpt>
<trkpt lat="46.53985000" lon="6.28311670"><ele>1110</ele><time>2004-06-15T14:44:17Z</time></trkpt>
<trkpt lat="46.53981670" lon="6.28311670"><ele>1111</ele><time>2004-06-15T14:44:24Z</time></trkpt>
<trkpt lat="46.53955000" lon="6.28301670"><ele>1112</ele><time>2004-06-15T14:44:38Z</time></trkpt>
<trkpt lat="46.53935000" lon="6.28303330"><ele>1114</ele><time>2004-06-15T14:44:47Z</time></trkpt>
<trkpt lat="46.53940000" lon="6.28326670"><ele>1114</ele><time>2004-06-15T14:44:54Z</time></trkpt>
<trkpt lat="46.53986670" lon="6.28415000"><ele>1125</ele><time>2004-06-15T14:45:40Z</time></trkpt>
<trkpt lat="46.54008330" lon="6.28446670"><ele>1126</ele><time>2004-06-15T14:45:56Z</time></trkpt>
<trkpt lat="46.54028330" lon="6.28491670"><ele>1132</ele><time>2004-06-15T14:46:13Z</time></trkpt>
<trkpt lat="46.54043330" lon="6.28520000"><ele>1135</ele><time>2004-06-15T14:46:26Z</time></trkpt>
<trkpt lat="46.54061670" lon="6.28546670"><ele>1139</ele><time>2004-06-15T14:46:40Z</time></trkpt>
<trkpt lat="46.54106670" lon="6.28591670"><ele>1142</ele><time>2004-06-15T14:47:17Z</time></trkpt>
<trkpt lat="46.54120000" lon="6.28610000"><ele>1142</ele><time>2004-06-15T14:47:27Z</time></trkpt>
<trkpt lat="46.54156670" lon="6.28648330"><ele>1156</ele><time>2004-06-15T14:48:01Z</time></trkpt>
<trkpt lat="46.54206670" lon="6.28691670"><ele>1155</ele><time>2004-06-15T14:48:45Z</time></trkpt>
<trkpt lat="46.54218330" lon="6.28711670"><ele>1159</ele><time>2004-06-15T14:49:06Z</time></trkpt>
<trkpt lat="46.54238330" lon="6.28728330"><ele>1160</ele><time>2004-06-15T14:49:23Z</time></trkpt>
<trkpt lat="46.54268330" lon="6.28745000"><ele>1164</ele><time>2004-06-15T14:49:45Z</time></trkpt>
<trkpt lat="46.54440000" lon="6.28930000"><ele>1191</ele><time>2004-06-15T14:52:40Z</time></trkpt>
<trkpt lat="46.54446670" lon="6.28921670"><ele>1197</ele><time>2004-06-15T14:52:54Z</time></trkpt>
<trkpt lat="46.54431670" lon="6.28893330"><ele>1200</ele><time>2004-06-15T14:53:28Z</time></trkpt>
<trkpt lat="46.54423330" lon="6.28868330"><ele>1199</ele><time>2004-06-15T14:53:44Z</time></trkpt>
<trkpt lat="46.54396670" lon="6.28810000"><ele>1202</ele><time>2004-06-15T14:54:14Z</time></trkpt>
<trkpt lat="46.54401670" lon="6.28796670"><ele>1206</ele><time>2004-06-15T14:54:20Z</time></trkpt>
<trkpt lat="46.54403330" lon="6.28735000"><ele>1212</ele><time>2004-06-15T14:54:56Z</time></trkpt>
<trkpt lat="46.54408330" lon="6.28700000"><ele>1212</ele><time>2004-06-15T14:55:15Z</time></trkpt>
<trkpt lat="46.54405000" lon="6.28670000"><ele>1212</ele><time>2004-06-15T14:55:29Z</time></trkpt>
<trkpt lat="46.54386670" lon="6.28610000"><ele>1217</ele><time>2004-06-15T14:56:11Z</time></trkpt>
<trkpt lat="46.54383330" lon="6.28585000"><ele>1221</ele><time>2004-06-15T14:56:24Z</time></trkpt>
<trkpt lat="46.54416670" lon="6.28495000"><ele>1225</ele><time>2004-06-15T14:57:14Z</time></trkpt>
<trkpt lat="46.54433330" lon="6.28480000"><ele>1228</ele><time>2004-06-15T14:57:31Z</time></trkpt>
<trkpt lat="46.54453330" lon="6.28468330"><ele>1232</ele><time>2004-06-15T14:57:48Z</time></trkpt>
<trkpt lat="46.54481670" lon="6.28415000"><ele>1235</ele><time>2004-06-15T14:58:18Z</time></trkpt>
<trkpt lat="46.54478330" lon="6.28406670"><ele>1246</ele><time>2004-06-15T14:59:25Z</time></trkpt>
<trkpt lat="46.54510000" lon="6.28383330"><ele>1245</ele><time>2004-06-15T14:59:41Z</time></trkpt>
<trkpt lat="46.54558330" lon="6.28361670"><ele>1249</ele><time>2004-06-15T14:59:57Z</time></trkpt>
<trkpt lat="46.54590000" lon="6.28355000"><ele>1247</ele><time>2004-06-15T15:00:11Z</time></trkpt>
<trkpt lat="46.54613330" lon="6.28345000"><ele>1245</ele><time>2004-06-15T15:00:28Z</time></trkpt>
<trkpt lat="46.54646670" lon="6.28320000"><ele>1247</ele><time>2004-06-15T15:00:45Z</time></trkpt>
<trkpt lat="46.54698330" lon="6.28293330"><ele>1250</ele><time>2004-06-15T15:01:12Z</time></trkpt>
<trkpt lat="46.54711670" lon="6.28270000"><ele>1251</ele><time>2004-06-15T15:01:23Z</time></trkpt>
<trkpt lat="46.54700000" lon="6.28241670"><ele>1254</ele><time>2004-06-15T15:01:38Z</time></trkpt>
<trkpt lat="46.54671670" lon="6.28211670"><ele>1254</ele><time>2004-06-15T15:01:57Z</time></trkpt>
<trkpt lat="46.54640000" lon="6.28143330"><ele>1256</ele><time>2004-06-15T15:02:22Z</time></trkpt>
<trkpt lat="46.54626670" lon="6.28091670"><ele>1255</ele><time>2004-06-15T15:02:33Z</time></trkpt>
<trkpt lat="46.54590000" lon="6.28011670"><ele>1253</ele><time>2004-06-15T15:02:45Z</time></trkpt>
<trkpt lat="46.54573330" lon="6.27980000"><ele>1252</ele><time>2004-06-15T15:02:51Z</time></trkpt>
<trkpt lat="46.54560000" lon="6.27966670"><ele>1250</ele><time>2004-06-15T15:02:59Z</time></trkpt>
<trkpt lat="46.54553330" lon="6.27956670"><ele>1252</ele><time>2004-06-15T15:03:38Z</time></trkpt>
<trkpt lat="46.54566670" lon="6.27811670"><ele>1248</ele><time>2004-06-15T15:04:22Z</time></trkpt>
<trkpt lat="46.54553330" lon="6.27771670"><ele>1250</ele><time>2004-06-15T15:04:38Z</time></trkpt>
<trkpt lat="46.54571670" lon="6.27658330"><ele>1250</ele><time>2004-06-15T15:05:11Z</time></trkpt>
<trkpt lat="46.54588330" lon="6.27600000"><ele>1253</ele><time>2004-06-15T15:05:28Z</time></trkpt>
<trkpt lat="46.54583330" lon="6.27546670"><ele>1253</ele><time>2004-06-15T15:05:44Z</time></trkpt>
<trkpt lat="46.54596670" lon="6.27496670"><ele>1255</ele><time>2004-06-15T15:05:56Z</time></trkpt>
<trkpt lat="46.54621670" lon="6.27350000"><ele>1257</ele><time>2004-06-15T15:06:34Z</time></trkpt>
<trkpt lat="46.54618330" lon="6.27295000"><ele>1259</ele><time>2004-06-15T15:06:50Z</time></trkpt>
<trkpt lat="46.54465000" lon="6.27056670"><ele>1258</ele><time>2004-06-15T15:07:30Z</time></trkpt>
<trkpt lat="46.54425000" lon="6.26961670"><ele>1256</ele><time>2004-06-15T15:07:48Z</time></trkpt>
<trkpt lat="46.54416670" lon="6.26946670"><ele>1257</ele><time>2004-06-15T15:07:57Z</time></trkpt>
<trkpt lat="46.54405000" lon="6.26916670"><ele>1255</ele><time>2004-06-15T15:08:07Z</time></trkpt>
<trkpt lat="46.54370000" lon="6.26841670"><ele>1254</ele><time>2004-06-15T15:08:21Z</time></trkpt>
<trkpt lat="46.54328330" lon="6.26771670"><ele>1235</ele><time>2004-06-15T15:09:29Z</time></trkpt>
<trkpt lat="46.54291670" lon="6.26715000"><ele>1234</ele><time>2004-06-15T15:09:41Z</time></trkpt>
<trkpt lat="46.54173330" lon="6.26625000"><ele>1233</ele><time>2004-06-15T15:10:08Z</time></trkpt>
<trkpt lat="46.54131670" lon="6.26561670"><ele>1232</ele><time>2004-06-15T15:10:21Z</time></trkpt>
<trkpt lat="46.54126670" lon="6.26550000"><ele>1230</ele><time>2004-06-15T15:10:28Z</time></trkpt>
<trkpt lat="46.54128330" lon="6.26550000"><ele>1191</ele><time>2004-06-15T15:11:24Z</time></trkpt>
<trkpt lat="46.54113330" lon="6.26480000"><ele>1203</ele><time>2004-06-15T15:12:20Z</time></trkpt>
<trkpt lat="46.54110000" lon="6.26471670"><ele>1204</ele><time>2004-06-15T15:12:22Z</time></trkpt>
<trkpt lat="46.54071670" lon="6.26458330"><ele>1209</ele><time>2004-06-15T15:12:42Z</time></trkpt>
<trkpt lat="46.54065000" lon="6.26438330"><ele>1210</ele><time>2004-06-15T15:12:48Z</time></trkpt>
<trkpt lat="46.54046670" lon="6.26316670"><ele>1213</ele><time>2004-06-15T15:13:25Z</time></trkpt>
<trkpt lat="46.54035000" lon="6.26251670"><ele>1217</ele><time>2004-06-15T15:13:44Z</time></trkpt>
<trkpt lat="46.54026670" lon="6.26191670"><ele>1220</ele><time>2004-06-15T15:14:04Z</time></trkpt>
<trkpt lat="46.54028330" lon="6.26161670"><ele>1221</ele><time>2004-06-15T15:14:17Z</time></trkpt>
<trkpt lat="46.54028330" lon="6.26165000"><ele>1222</ele><time>2004-06-15T15:14:37Z</time></trkpt>
<trkpt lat="46.54021670" lon="6.26155000"><ele>1230</ele><time>2004-06-15T15:15:14Z</time></trkpt>
<trkpt lat="46.53993330" lon="6.26095000"><ele>1229</ele><time>2004-06-15T15:15:28Z</time></trkpt>
<trkpt lat="46.53946670" lon="6.26025000"><ele>1231</ele><time>2004-06-15T15:15:43Z</time></trkpt>
<trkpt lat="46.53893330" lon="6.25968330"><ele>1229</ele><time>2004-06-15T15:15:56Z</time></trkpt>
<trkpt lat="46.53836670" lon="6.25876670"><ele>1226</ele><time>2004-06-15T15:16:10Z</time></trkpt>
<trkpt lat="46.53795000" lon="6.25851670"><ele>1223</ele><time>2004-06-15T15:16:19Z</time></trkpt>
<trkpt lat="46.53783330" lon="6.25826670"><ele>1222</ele><time>2004-06-15T15:16:23Z</time></trkpt>
<trkpt lat="46.53778330" lon="6.25673330"><ele>1222</ele><time>2004-06-15T15:16:41Z</time></trkpt>
<trkpt lat="46.53746670" lon="6.25610000"><ele>1221</ele><time>2004-06-15T15:16:49Z</time></trkpt>
<trkpt lat="46.53738330" lon="6.25586670"><ele>1221</ele><time>2004-06-15T15:16:52Z</time></trkpt>
<trkpt lat="46.53721670" lon="6.25556670"><ele>1220</ele><time>2004-06-15T15:16:56Z</time></trkpt>
<trkpt lat="46.53693330" lon="6.25548330"><ele>1218</ele><time>2004-06-15T15:17:00Z</time></trkpt>
<trkpt lat="46.53616670" lon="6.25538330"><ele>1214</ele><time>2004-06-15T15:17:12Z</time></trkpt>
<trkpt lat="46.53538330" lon="6.25495000"><ele>1208</ele><time>2004-06-15T15:17:23Z</time></trkpt>
<trkpt lat="46.53415000" lon="6.25348330"><ele>1196</ele><time>2004-06-15T15:17:45Z</time></trkpt>
<trkpt lat="46.53395000" lon="6.25318330"><ele>1196</ele><time>2004-06-15T15:17:51Z</time></trkpt>
<trkpt lat="46.53395000" lon="6.25270000"><ele>1194</ele><time>2004-06-15T15:17:56Z</time></trkpt>
<trkpt lat="46.53401670" lon="6.25161670"><ele>1192</ele><time>2004-06-15T15:18:05Z</time></trkpt>
<trkpt lat="46.53395000" lon="6.25143330"><ele>1190</ele><time>2004-06-15T15:18:07Z</time></trkpt>
<trkpt lat="46.53380000" lon="6.25016670"><ele>1182</ele><time>2004-06-15T15:18:19Z</time></trkpt>
<trkpt lat="46.53358330" lon="6.24995000"><ele>1180</ele><time>2004-06-15T15:18:23Z</time></trkpt>
<trkpt lat="46.53353330" lon="6.24986670"><ele>1180</ele><time>2004-06-15T15:18:24Z</time></trkpt>
<trkpt lat="46.53321670" lon="6.24953330"><ele>1179</ele><time>2004-06-15T15:18:31Z</time></trkpt>
<trkpt lat="46.53288330" lon="6.24948330"><ele>1177</ele><time>2004-06-15T15:18:37Z</time></trkpt>
<trkpt lat="46.53275000" lon="6.24953330"><ele>1177</ele><time>2004-06-15T15:18:39Z</time></trkpt>
<trkpt lat="46.53238330" lon="6.24996670"><ele>1177</ele><time>2004-06-15T15:18:45Z</time></trkpt>
<trkpt lat="46.53231670" lon="6.25008330"><ele>1177</ele><time>2004-06-15T15:18:47Z</time></trkpt>
<trkpt lat="46.53198330" lon="6.25013330"><ele>1176</ele><time>2004-06-15T15:18:56Z</time></trkpt>
<trkpt lat="46.53173330" lon="6.24986670"><ele>1167</ele><time>2004-06-15T15:19:06Z</time></trkpt>
<trkpt lat="46.53163330" lon="6.24968330"><ele>1162</ele><time>2004-06-15T15:19:13Z</time></trkpt>
<trkpt lat="46.53146670" lon="6.24966670"><ele>1159</ele><time>2004-06-15T15:19:17Z</time></trkpt>
<trkpt lat="46.53108330" lon="6.24986670"><ele>1153</ele><time>2004-06-15T15:19:27Z</time></trkpt>
<trkpt lat="46.53103330" lon="6.25001670"><ele>1161</ele><time>2004-06-15T15:22:09Z</time></trkpt>
<trkpt lat="46.53056670" lon="6.25038330"><ele>1131</ele><time>2004-06-15T15:24:34Z</time></trkpt>
<trkpt lat="46.53020000" lon="6.25025000"><ele>1130</ele><time>2004-06-15T15:24:51Z</time></trkpt>
<trkpt lat="46.52968330" lon="6.24996670"><ele>1128</ele><time>2004-06-15T15:25:09Z</time></trkpt>
<trkpt lat="46.52925000" lon="6.24956670"><ele>1134</ele><time>2004-06-15T15:25:25Z</time></trkpt>
<trkpt lat="46.52911670" lon="6.24935000"><ele>1134</ele><time>2004-06-15T15:25:42Z</time></trkpt>
<trkpt lat="46.52938330" lon="6.24958330"><ele>1137</ele><time>2004-06-15T15:25:53Z</time></trkpt>
<trkpt lat="46.53010000" lon="6.25013330"><ele>1135</ele><time>2004-06-15T15:26:15Z</time></trkpt>
<trkpt lat="46.53043330" lon="6.25031670"><ele>1135</ele><time>2004-06-15T15:26:24Z</time></trkpt>
<trkpt lat="46.53038330" lon="6.25055000"><ele>1133</ele><time>2004-06-15T15:26:32Z</time></trkpt>
<trkpt lat="46.53043330" lon="6.25121670"><ele>1134</ele><time>2004-06-15T15:26:47Z</time></trkpt>
<trkpt lat="46.53035000" lon="6.25221670"><ele>1138</ele><time>2004-06-15T15:27:16Z</time></trkpt>
<trkpt lat="46.52996670" lon="6.25243330"><ele>1138</ele><time>2004-06-15T15:27:27Z</time></trkpt>
<trkpt lat="46.52975000" lon="6.25280000"><ele>1136</ele><time>2004-06-15T15:27:36Z</time></trkpt>
<trkpt lat="46.52978330" lon="6.25338330"><ele>1137</ele><time>2004-06-15T15:27:47Z</time></trkpt>
<trkpt lat="46.52983330" lon="6.25341670"><ele>1143</ele><time>2004-06-15T15:27:57Z</time></trkpt>
<trkpt lat="46.52981670" lon="6.25355000"><ele>1134</ele><time>2004-06-15T15:28:38Z</time></trkpt>
<trkpt lat="46.52968330" lon="6.25383330"><ele>1137</ele><time>2004-06-15T15:28:55Z</time></trkpt>
<trkpt lat="46.52940000" lon="6.25458330"><ele>1138</ele><time>2004-06-15T15:29:17Z</time></trkpt>
<trkpt lat="46.52886670" lon="6.25508330"><ele>1139</ele><time>2004-06-15T15:29:35Z</time></trkpt>
<trkpt lat="46.52861670" lon="6.25570000"><ele>1139</ele><time>2004-06-15T15:29:49Z</time></trkpt>
<trkpt lat="46.52820000" lon="6.25640000"><ele>1141</ele><time>2004-06-15T15:30:07Z</time></trkpt>
<trkpt lat="46.52715000" lon="6.25698330"><ele>1151</ele><time>2004-06-15T15:30:44Z</time></trkpt>
<trkpt lat="46.52685000" lon="6.25751670"><ele>1151</ele><time>2004-06-15T15:30:59Z</time></trkpt>
<trkpt lat="46.52663330" lon="6.25845000"><ele>1147</ele><time>2004-06-15T15:31:20Z</time></trkpt>
<trkpt lat="46.52631670" lon="6.25943330"><ele>1152</ele><time>2004-06-15T15:31:43Z</time></trkpt>
<trkpt lat="46.52593330" lon="6.26005000"><ele>1154</ele><time>2004-06-15T15:32:02Z</time></trkpt>
<trkpt lat="46.52546670" lon="6.26001670"><ele>1153</ele><time>2004-06-15T15:32:16Z</time></trkpt>
<trkpt lat="46.52500000" lon="6.25978330"><ele>1155</ele><time>2004-06-15T15:32:33Z</time></trkpt>
<trkpt lat="46.52470000" lon="6.25945000"><ele>1158</ele><time>2004-06-15T15:32:47Z</time></trkpt>
<trkpt lat="46.52408330" lon="6.25826670"><ele>1162</ele><time>2004-06-15T15:33:21Z</time></trkpt>
<trkpt lat="46.52396670" lon="6.25811670"><ele>1164</ele><time>2004-06-15T15:33:25Z</time></trkpt>
<trkpt lat="46.52388330" lon="6.25780000"><ele>1164</ele><time>2004-06-15T15:33:30Z</time></trkpt>
<trkpt lat="46.52373330" lon="6.25745000"><ele>1166</ele><time>2004-06-15T15:33:35Z</time></trkpt>
<trkpt lat="46.52351670" lon="6.25720000"><ele>1165</ele><time>2004-06-15T15:33:40Z</time></trkpt>
<trkpt lat="46.52255000" lon="6.25645000"><ele>1161</ele><time>2004-06-15T15:34:00Z</time></trkpt>
<trkpt lat="46.52213330" lon="6.25576670"><ele>1159</ele><time>2004-06-15T15:34:12Z</time></trkpt>
<trkpt lat="46.52148330" lon="6.25436670"><ele>1160</ele><time>2004-06-15T15:34:34Z</time></trkpt>
<trkpt lat="46.52065000" lon="6.25315000"><ele>1159</ele><time>2004-06-15T15:34:53Z</time></trkpt>
<trkpt lat="46.51960000" lon="6.25378330"><ele>1158</ele><time>2004-06-15T15:35:16Z</time></trkpt>
<trkpt lat="46.51873330" lon="6.25303330"><ele>1157</ele><time>2004-06-15T15:35:35Z</time></trkpt>
<trkpt lat="46.51826670" lon="6.25271670"><ele>1149</ele><time>2004-06-15T15:35:42Z</time></trkpt>
<trkpt lat="46.51798330" lon="6.25245000"><ele>1143</ele><time>2004-06-15T15:35:49Z</time></trkpt>
<trkpt lat="46.51790000" lon="6.25233330"><ele>1140</ele><time>2004-06-15T15:35:52Z</time></trkpt>
<trkpt lat="46.51755000" lon="6.25215000"><ele>1133</ele><time>2004-06-15T15:35:59Z</time></trkpt>
<trkpt lat="46.51746670" lon="6.25215000"><ele>1132</ele><time>2004-06-15T15:36:01Z</time></trkpt>
<trkpt lat="46.51721670" lon="6.25228330"><ele>1128</ele><time>2004-06-15T15:36:11Z</time></trkpt>
<trkpt lat="46.51731670" lon="6.25226670"><ele>1109</ele><time>2004-06-15T15:36:45Z</time></trkpt>
<trkpt lat="46.51735000" lon="6.25245000"><ele>1109</ele><time>2004-06-15T15:36:51Z</time></trkpt>
<trkpt lat="46.51775000" lon="6.25346670"><ele>1106</ele><time>2004-06-15T15:37:03Z</time></trkpt>
<trkpt lat="46.51833330" lon="6.25453330"><ele>1102</ele><time>2004-06-15T15:37:14Z</time></trkpt>
<trkpt lat="46.51825000" lon="6.25546670"><ele>1095</ele><time>2004-06-15T15:37:24Z</time></trkpt>
<trkpt lat="46.51828330" lon="6.25598330"><ele>1092</ele><time>2004-06-15T15:37:29Z</time></trkpt>
<trkpt lat="46.51815000" lon="6.25640000"><ele>1092</ele><time>2004-06-15T15:37:34Z</time></trkpt>
<trkpt lat="46.51805000" lon="6.25695000"><ele>1090</ele><time>2004-06-15T15:37:39Z</time></trkpt>
<trkpt lat="46.51825000" lon="6.25770000"><ele>1079</ele><time>2004-06-15T15:37:45Z</time></trkpt>
<trkpt lat="46.51821670" lon="6.25816670"><ele>1072</ele><time>2004-06-15T15:37:49Z</time></trkpt>
<trkpt lat="46.51813330" lon="6.25871670"><ele>1062</ele><time>2004-06-15T15:37:54Z</time></trkpt>
<trkpt lat="46.51821670" lon="6.25941670"><ele>1053</ele><time>2004-06-15T15:38:01Z</time></trkpt>
<trkpt lat="46.51865000" lon="6.26003330"><ele>1049</ele><time>2004-06-15T15:38:09Z</time></trkpt>
<trkpt lat="46.51930000" lon="6.26068330"><ele>1045</ele><time>2004-06-15T15:38:18Z</time></trkpt>
<trkpt lat="46.51921670" lon="6.26108330"><ele>1037</ele><time>2004-06-15T15:38:24Z</time></trkpt>
<trkpt lat="46.51885000" lon="6.26145000"><ele>1022</ele><time>2004-06-15T15:38:34Z</time></trkpt>
<trkpt lat="46.51856670" lon="6.26145000"><ele>1013</ele><time>2004-06-15T15:38:45Z</time></trkpt>
<trkpt lat="46.51826670" lon="6.26165000"><ele>1010</ele><time>2004-06-15T15:38:53Z</time></trkpt>
<trkpt lat="46.51821670" lon="6.26210000"><ele>1006</ele><time>2004-06-15T15:38:58Z</time></trkpt>
<trkpt lat="46.51833330" lon="6.26331670"><ele>993</ele><time>2004-06-15T15:39:21Z</time></trkpt>
<trkpt lat="46.51815000" lon="6.26360000"><ele>989</ele><time>2004-06-15T15:39:36Z</time></trkpt>
<trkpt lat="46.51795000" lon="6.26366670"><ele>985</ele><time>2004-06-15T15:39:45Z</time></trkpt>
<trkpt lat="46.51781670" lon="6.26360000"><ele>984</ele><time>2004-06-15T15:39:49Z</time></trkpt>
<trkpt lat="46.51766670" lon="6.26341670"><ele>982</ele><time>2004-06-15T15:39:53Z</time></trkpt>
<trkpt lat="46.51758330" lon="6.26326670"><ele>981</ele><time>2004-06-15T15:39:56Z</time></trkpt>
<trkpt lat="46.51710000" lon="6.26263330"><ele>975</ele><time>2004-06-15T15:40:09Z</time></trkpt>
<trkpt lat="46.51636670" lon="6.26203330"><ele>968</ele><time>2004-06-15T15:40:21Z</time></trkpt>
<trkpt lat="46.51563330" lon="6.26130000"><ele>960</ele><time>2004-06-15T15:40:32Z</time></trkpt>
<trkpt lat="46.51516670" lon="6.26061670"><ele>955</ele><time>2004-06-15T15:40:39Z</time></trkpt>
<trkpt lat="46.51501670" lon="6.25990000"><ele>952</ele><time>2004-06-15T15:40:44Z</time></trkpt>
<trkpt lat="46.51500000" lon="6.25960000"><ele>950</ele><time>2004-06-15T15:40:46Z</time></trkpt>
<trkpt lat="46.51468330" lon="6.25923330"><ele>949</ele><time>2004-06-15T15:40:51Z</time></trkpt>
<trkpt lat="46.51446670" lon="6.25936670"><ele>947</ele><time>2004-06-15T15:40:54Z</time></trkpt>
<trkpt lat="46.51391670" lon="6.25988330"><ele>941</ele><time>2004-06-15T15:41:04Z</time></trkpt>
<trkpt lat="46.51371670" lon="6.26026670"><ele>939</ele><time>2004-06-15T15:41:16Z</time></trkpt>
<trkpt lat="46.51345000" lon="6.26023330"><ele>945</ele><time>2004-06-15T15:41:56Z</time></trkpt>
<trkpt lat="46.51330000" lon="6.26025000"><ele>945</ele><time>2004-06-15T15:42:06Z</time></trkpt>
<trkpt lat="46.51333330" lon="6.26025000"><ele>951</ele><time>2004-06-15T15:42:36Z</time></trkpt>
<trkpt lat="46.51326670" lon="6.26038330"><ele>950</ele><time>2004-06-15T15:43:09Z</time></trkpt>
<trkpt lat="46.51248330" lon="6.26005000"><ele>947</ele><time>2004-06-15T15:43:36Z</time></trkpt>
<trkpt lat="46.51201670" lon="6.25990000"><ele>940</ele><time>2004-06-15T15:43:46Z</time></trkpt>
<trkpt lat="46.51148330" lon="6.25983330"><ele>935</ele><time>2004-06-15T15:43:56Z</time></trkpt>
<trkpt lat="46.51120000" lon="6.26003330"><ele>931</ele><time>2004-06-15T15:44:02Z</time></trkpt>
<trkpt lat="46.51100000" lon="6.26058330"><ele>927</ele><time>2004-06-15T15:44:13Z</time></trkpt>
<trkpt lat="46.51050000" lon="6.26215000"><ele>917</ele><time>2004-06-15T15:45:13Z</time></trkpt>
<trkpt lat="46.50993330" lon="6.26266670"><ele>911</ele><time>2004-06-15T15:45:21Z</time></trkpt>
<trkpt lat="46.50946670" lon="6.26303330"><ele>907</ele><time>2004-06-15T15:45:35Z</time></trkpt>
<trkpt lat="46.50938330" lon="6.26323330"><ele>904</ele><time>2004-06-15T15:46:10Z</time></trkpt>
<trkpt lat="46.50931670" lon="6.26346670"><ele>902</ele><time>2004-06-15T15:46:13Z</time></trkpt>
<trkpt lat="46.50925000" lon="6.26430000"><ele>898</ele><time>2004-06-15T15:46:21Z</time></trkpt>
<trkpt lat="46.50925000" lon="6.26491670"><ele>894</ele><time>2004-06-15T15:46:30Z</time></trkpt>
<trkpt lat="46.50931670" lon="6.26523330"><ele>892</ele><time>2004-06-15T15:46:34Z</time></trkpt>
<trkpt lat="46.50975000" lon="6.26591670"><ele>889</ele><time>2004-06-15T15:46:44Z</time></trkpt>
<trkpt lat="46.51076670" lon="6.26668330"><ele>887</ele><time>2004-06-15T15:46:57Z</time></trkpt>
<trkpt lat="46.51103330" lon="6.26691670"><ele>887</ele><time>2004-06-15T15:47:01Z</time></trkpt>
<trkpt lat="46.51111670" lon="6.26695000"><ele>887</ele><time>2004-06-15T15:47:03Z</time></trkpt>
<trkpt lat="46.51146670" lon="6.26645000"><ele>886</ele><time>2004-06-15T15:47:12Z</time></trkpt>
<trkpt lat="46.51141670" lon="6.26666670"><ele>886</ele><time>2004-06-15T15:47:16Z</time></trkpt>
<trkpt lat="46.51133330" lon="6.26676670"><ele>886</ele><time>2004-06-15T15:47:18Z</time></trkpt>
<trkpt lat="46.51113330" lon="6.26688330"><ele>886</ele><time>2004-06-15T15:47:21Z</time></trkpt>
<trkpt lat="46.51086670" lon="6.26685000"><ele>886</ele><time>2004-06-15T15:47:24Z</time></trkpt>
<trkpt lat="46.51031670" lon="6.26645000"><ele>884</ele><time>2004-06-15T15:47:31Z</time></trkpt>
<trkpt lat="46.51021670" lon="6.26673330"><ele>882</ele><time>2004-06-15T15:47:40Z</time></trkpt>
<trkpt lat="46.51066670" lon="6.26720000"><ele>880</ele><time>2004-06-15T15:47:49Z</time></trkpt>
<trkpt lat="46.51131670" lon="6.26796670"><ele>880</ele><time>2004-06-15T15:47:59Z</time></trkpt>
<trkpt lat="46.51155000" lon="6.26785000"><ele>880</ele><time>2004-06-15T15:48:03Z</time></trkpt>
<trkpt lat="46.51200000" lon="6.26700000"><ele>878</ele><time>2004-06-15T15:48:11Z</time></trkpt>
<trkpt lat="46.51223330" lon="6.26685000"><ele>875</ele><time>2004-06-15T15:48:19Z</time></trkpt>
<trkpt lat="46.51238330" lon="6.26721670"><ele>874</ele><time>2004-06-15T15:48:27Z</time></trkpt>
<trkpt lat="46.51231670" lon="6.26805000"><ele>874</ele><time>2004-06-15T15:48:40Z</time></trkpt>
<trkpt lat="46.51185000" lon="6.26901670"><ele>862</ele><time>2004-06-15T15:48:49Z</time></trkpt>
<trkpt lat="46.51125000" lon="6.26995000"><ele>858</ele><time>2004-06-15T15:49:00Z</time></trkpt>
<trkpt lat="46.51100000" lon="6.27108330"><ele>857</ele><time>2004-06-15T15:49:10Z</time></trkpt>
<trkpt lat="46.51076670" lon="6.27270000"><ele>851</ele><time>2004-06-15T15:49:24Z</time></trkpt>
<trkpt lat="46.51071670" lon="6.27290000"><ele>848</ele><time>2004-06-15T15:49:26Z</time></trkpt>
<trkpt lat="46.51051670" lon="6.27330000"><ele>845</ele><time>2004-06-15T15:49:30Z</time></trkpt>
<trkpt lat="46.50978330" lon="6.27411670"><ele>843</ele><time>2004-06-15T15:49:42Z</time></trkpt>
<trkpt lat="46.50950000" lon="6.27450000"><ele>812</ele><time>2004-06-15T15:50:42Z</time></trkpt>
<trkpt lat="46.50903330" lon="6.27628330"><ele>807</ele><time>2004-06-15T15:50:56Z</time></trkpt>
<trkpt lat="46.50888330" lon="6.27666670"><ele>803</ele><time>2004-06-15T15:51:01Z</time></trkpt>
<trkpt lat="46.50885000" lon="6.27705000"><ele>798</ele><time>2004-06-15T15:51:09Z</time></trkpt>
<trkpt lat="46.50856670" lon="6.27803330"><ele>794</ele><time>2004-06-15T15:51:24Z</time></trkpt>
<trkpt lat="46.50843330" lon="6.27838330"><ele>794</ele><time>2004-06-15T15:51:28Z</time></trkpt>
<trkpt lat="46.50795000" lon="6.27921670"><ele>793</ele><time>2004-06-15T15:51:40Z</time></trkpt>
<trkpt lat="46.50790000" lon="6.27921670"><ele>793</ele><time>2004-06-15T15:51:59Z</time></trkpt>
<trkpt lat="46.50685000" lon="6.28176670"><ele>781</ele><time>2004-06-15T15:52:51Z</time></trkpt>
<trkpt lat="46.50620000" lon="6.28378330"><ele>777</ele><time>2004-06-15T15:53:07Z</time></trkpt>
<trkpt lat="46.50601670" lon="6.28518330"><ele>774</ele><time>2004-06-15T15:53:18Z</time></trkpt>
<trkpt lat="46.50616670" lon="6.28640000"><ele>766</ele><time>2004-06-15T15:53:29Z</time></trkpt>
<trkpt lat="46.50676670" lon="6.28905000"><ele>751</ele><time>2004-06-15T15:53:52Z</time></trkpt>
<trkpt lat="46.50705000" lon="6.29050000"><ele>746</ele><time>2004-06-15T15:54:03Z</time></trkpt>
<trkpt lat="46.50700000" lon="6.29181670"><ele>741</ele><time>2004-06-15T15:54:13Z</time></trkpt>
<trkpt lat="46.50665000" lon="6.29446670"><ele>732</ele><time>2004-06-15T15:54:35Z</time></trkpt>
<trkpt lat="46.50670000" lon="6.29578330"><ele>730</ele><time>2004-06-15T15:54:47Z</time></trkpt>
<trkpt lat="46.50688330" lon="6.29723330"><ele>726</ele><time>2004-06-15T15:55:01Z</time></trkpt>
<trkpt lat="46.50705000" lon="6.29886670"><ele>723</ele><time>2004-06-15T15:55:24Z</time></trkpt>
<trkpt lat="46.50750000" lon="6.30043330"><ele>722</ele><time>2004-06-15T15:55:46Z</time></trkpt>
<trkpt lat="46.50783330" lon="6.30230000"><ele>728</ele><time>2004-06-15T15:56:13Z</time></trkpt>
<trkpt lat="46.50830000" lon="6.30536670"><ele>734</ele><time>2004-06-15T15:57:02Z</time></trkpt>
<trkpt lat="46.50851670" lon="6.30641670"><ele>736</ele><time>2004-06-15T15:57:19Z</time></trkpt>
<trkpt lat="46.50865000" lon="6.30668330"><ele>736</ele><time>2004-06-15T15:57:24Z</time></trkpt>
<trkpt lat="46.50870000" lon="6.30690000"><ele>736</ele><time>2004-06-15T15:57:28Z</time></trkpt>
<trkpt lat="46.50881670" lon="6.30711670"><ele>736</ele><time>2004-06-15T15:57:34Z</time></trkpt>
<trkpt lat="46.50885000" lon="6.30720000"><ele>737</ele><time>2004-06-15T15:57:38Z</time></trkpt>
<trkpt lat="46.50900000" lon="6.30726670"><ele>737</ele><time>2004-06-15T15:57:44Z</time></trkpt>
<trkpt lat="46.50940000" lon="6.30756670"><ele>737</ele><time>2004-06-15T15:57:55Z</time></trkpt>
<trkpt lat="46.50968330" lon="6.30763330"><ele>736</ele><time>2004-06-15T15:58:02Z</time></trkpt>
<trkpt lat="46.50986670" lon="6.30753330"><ele>736</ele><time>2004-06-15T15:58:13Z</time></trkpt>
</trkseg></trk></gpx>